Time;durP1;ratioP1;P1;durP2;ratioP2;P2;SDS_P1;SDS_P2;PMS_P1;PMS_P2;Temp;Humidity;BMP_temperature;BMP_pressure;BME280_temperature;BME280_humidity;BME280_pressure;Samples;Min_cycle;Max_cycle;Signal;HPM_P1;HPM_P2
2021/07/23 00:02:15;;;;;;;9.60;7.13;;;;;;;19.47;65.21;96864.94;5097180;28;20185;-63
2021/07/23 00:04:41;;;;;;;9.13;6.63;;;;;;;19.32;65.83;96865.84;5101204;28;20200;-59
2021/07/23 00:07:06;;;;;;;11.73;7.68;;;;;;;19.43;65.28;96871.84;5096510;28;20196;-59
2021/07/23 00:09:31;;;;;;;11.45;6.65;;;;;;;19.20;66.24;96868.06;5108208;28;20199;-59
2021/07/23 00:11:57;;;;;;;15.50;7.25;;;;;;;19.26;65.99;96868.81;5101910;28;20191;-59
2021/07/23 00:14:22;;;;;;;10.07;6.47;;;;;;;19.38;65.78;96870.03;5100021;28;20224;-61
2021/07/23 00:16:48;;;;;;;9.57;6.78;;;;;;;19.49;65.25;96870.75;5094004;28;20185;-60
2021/07/23 00:19:13;;;;;;;8.50;6.28;;;;;;;19.45;65.35;96857.22;5110562;28;20229;-61
2021/07/23 00:21:38;;;;;;;14.52;7.25;;;;;;;19.53;64.95;96861.16;5105065;28;20191;-60
2021/07/23 00:24:04;;;;;;;10.15;7.05;;;;;;;19.44;65.36;96860.16;5093116;28;20203;-60
2021/07/23 00:26:29;;;;;;;9.35;6.70;;;;;;;19.45;65.54;96859.88;5106560;28;20188;-60
2021/07/23 00:28:55;;;;;;;9.25;6.50;;;;;;;19.40;65.54;96864.44;5110953;28;20179;-60
2021/07/23 00:31:20;;;;;;;11.27;6.40;;;;;;;19.41;65.37;96863.34;5094669;28;20222;-64
2021/07/23 00:33:45;;;;;;;9.63;7.07;;;;;;;19.30;66.03;96861.88;5097523;28;21004;-60
2021/07/23 00:36:11;;;;;;;10.70;6.95;;;;;;;19.41;65.38;96864.16;5104202;28;20536;-60
2021/07/23 00:38:36;;;;;;;11.82;6.90;;;;;;;19.40;65.42;96862.56;5100107;28;20188;-60
2021/07/23 00:41:02;;;;;;;11.02;7.00;;;;;;;19.42;65.37;96860.44;5100000;28;20183;-60
2021/07/23 00:43:27;;;;;;;9.73;7.05;;;;;;;19.45;65.43;96859.09;5097404;28;20295;-60
2021/07/23 00:45:54;;;;;;;10.27;6.65;;;;;;;19.42;65.39;96862.28;5099080;28;20661;-60
2021/07/23 00:48:19;;;;;;;10.18;7.07;;;;;;;19.44;65.26;96860.16;5097434;28;20186;-65
2021/07/23 00:50:46;;;;;;;9.93;6.95;;;;;;;19.34;65.60;96860.22;5118913;27;20172;-61
2021/07/23 00:53:12;;;;;;;10.23;6.75;;;;;;;19.36;65.78;96858.09;5099518;28;20662;-60
2021/07/23 00:55:40;;;;;;;11.85;7.20;;;;;;;19.38;65.64;96854.09;5091831;28;20180;-60
2021/07/23 00:58:06;;;;;;;8.10;6.28;;;;;;;19.29;66.09;96849.66;5096843;28;20187;-60
2021/07/23 01:00:32;;;;;;;8.32;5.95;;;;;;;19.35;65.81;96851.19;5110478;28;20617;-61
2021/07/23 01:02:58;;;;;;;12.35;6.80;;;;;;;19.28;66.05;96846.19;5092836;28;20206;-60
2021/07/23 01:05:23;;;;;;;10.55;7.18;;;;;;;19.33;66.00;96850.69;5097002;28;20210;-61
2021/07/23 01:07:50;;;;;;;10.43;7.25;;;;;;;19.32;65.89;96851.75;5103331;28;20180;-60
2021/07/23 01:10:15;;;;;;;12.60;6.97;;;;;;;19.40;65.42;96846.63;5107255;28;20208;-60
2021/07/23 01:12:41;;;;;;;10.00;6.70;;;;;;;19.50;65.36;96843.88;5095154;28;20211;-60
2021/07/23 01:15:06;;;;;;;9.85;6.70;;;;;;;19.51;65.26;96842.00;5103190;28;20194;-60
2021/07/23 01:17:32;;;;;;;10.35;6.82;;;;;;;19.60;64.83;96850.19;5102468;28;20205;-60
2021/07/23 01:20:16;;;;;;;12.95;6.72;;;;;;;19.70;64.49;96850.88;5103066;28;20191;-60
2021/07/23 01:22:43;;;;;;;9.52;6.88;;;;;;;19.56;65.10;96846.50;5102020;28;20207;-60
2021/07/23 01:25:10;;;;;;;9.88;6.85;;;;;;;19.60;64.94;96848.31;5095585;28;20649;-59
2021/07/23 01:27:43;;;;;;;9.32;7.35;;;;;;;19.41;65.29;96842.09;5097806;28;20179;-62
2021/07/23 01:30:10;;;;;;;9.30;6.78;;;;;;;19.24;66.29;96839.84;5110731;28;20179;-60
2021/07/23 01:32:36;;;;;;;10.23;6.88;;;;;;;19.37;65.80;96841.06;5109679;28;20191;-59
2021/07/23 01:35:02;;;;;;;8.35;6.40;;;;;;;19.44;65.60;96841.53;5108712;28;20626;-60
2021/07/23 01:37:28;;;;;;;9.60;6.82;;;;;;;19.47;65.47;96843.66;5096275;28;20519;-60
2021/07/23 01:39:54;;;;;;;9.75;6.60;;;;;;;19.53;65.15;96842.53;5103838;28;20259;-60
2021/07/23 01:42:19;;;;;;;9.07;7.10;;;;;;;19.45;65.21;96838.63;5106924;28;20187;-65
2021/07/23 01:44:45;;;;;;;11.18;6.78;;;;;;;19.56;64.95;96839.28;5106711;28;20231;-60
2021/07/23 01:47:10;;;;;;;9.52;6.70;;;;;;;19.45;65.36;96841.28;5106808;28;20731;-60
2021/07/23 01:49:35;;;;;;;9.27;7.05;;;;;;;19.35;65.69;96837.88;5097645;28;20192;-60
2021/07/23 01:52:02;;;;;;;9.27;7.00;;;;;;;19.10;66.37;96834.41;5102121;28;20266;-59
2021/07/23 01:54:28;;;;;;;8.85;6.65;;;;;;;19.15;66.31;96825.59;5103766;28;20283;-59
2021/07/23 01:56:53;;;;;;;9.65;7.40;;;;;;;19.07;66.75;96831.50;5095177;28;20184;-59
2021/07/23 01:59:18;;;;;;;9.38;7.10;;;;;;;19.18;66.46;96830.34;5108486;28;20230;-61
2021/07/23 02:01:44;;;;;;;11.98;6.68;;;;;;;19.16;66.70;96827.19;5101911;28;20224;-60
2021/07/23 02:04:09;;;;;;;10.00;7.10;;;;;;;19.17;66.43;96820.78;5096033;28;20254;-60
2021/07/23 02:06:34;;;;;;;10.25;6.82;;;;;;;19.08;66.56;96827.78;5097846;28;20259;-60
2021/07/23 02:09:00;;;;;;;9.90;6.65;;;;;;;19.13;66.53;96822.41;5100671;28;20200;-60
2021/07/23 02:11:25;;;;;;;9.15;6.72;;;;;;;18.98;67.10;96825.22;5095030;28;20176;-60
2021/07/23 02:13:51;;;;;;;9.95;7.20;;;;;;;19.03;66.79;96823.31;5106560;28;20190;-60
2021/07/23 02:16:16;;;;;;;8.95;6.72;;;;;;;18.91;67.76;96836.16;5096256;28;20701;-60
2021/07/23 02:18:41;;;;;;;10.15;6.75;;;;;;;18.82;68.18;96826.41;5102963;28;20183;-58
2021/07/23 02:21:07;;;;;;;10.90;7.18;;;;;;;18.76;68.41;96822.22;5110200;28;20183;-60
2021/07/23 02:23:34;;;;;;;10.80;6.85;;;;;;;18.83;67.98;96822.69;5095474;28;20212;-61
2021/07/23 02:25:59;;;;;;;10.20;6.95;;;;;;;18.99;67.48;96818.84;5106234;28;20184;-61
2021/07/23 02:28:24;;;;;;;10.30;6.38;;;;;;;18.94;67.66;96824.19;5091143;28;20184;-64
2021/07/23 02:30:50;;;;;;;9.32;6.68;;;;;;;18.88;67.99;96823.44;5112040;28;20659;-60
2021/07/23 02:33:15;;;;;;;10.32;7.05;;;;;;;18.68;68.58;96820.94;5100556;28;20183;-60
2021/07/23 02:35:40;;;;;;;13.35;7.15;;;;;;;18.74;68.22;96824.34;5105084;28;20184;-60
2021/07/23 02:38:06;;;;;;;9.75;7.20;;;;;;;18.90;67.73;96818.63;5106148;28;20188;-61
2021/07/23 02:40:31;;;;;;;9.27;7.20;;;;;;;18.73;68.37;96809.47;5109370;28;20194;-63
2021/07/23 02:42:57;;;;;;;8.98;6.20;;;;;;;18.61;68.70;96812.50;5096024;28;20202;-61
2021/07/23 02:45:22;;;;;;;13.73;7.20;;;;;;;18.64;68.88;96809.28;5106384;28;20228;-65
2021/07/23 02:47:48;;;;;;;8.77;7.13;;;;;;;18.43;69.76;96808.63;5103128;28;20176;-63
2021/07/23 02:50:14;;;;;;;9.77;6.90;;;;;;;18.33;70.37;96810.53;5108564;28;20608;-61
2021/07/23 02:52:39;;;;;;;9.90;7.47;;;;;;;18.16;71.40;96817.00;5127350;27;20195;-61
2021/07/23 02:55:05;;;;;;;10.25;7.57;;;;;;;18.11;71.31;96813.59;5104250;28;20207;-61
2021/07/23 02:57:30;;;;;;;11.33;7.40;;;;;;;18.22;71.44;96807.16;5106564;28;20702;-61
2021/07/23 02:59:56;;;;;;;8.25;6.70;;;;;;;18.39;70.61;96802.25;5105022;28;20176;-61
2021/07/23 03:02:22;;;;;;;9.47;7.07;;;;;;;18.48;70.37;96805.94;5099909;28;20192;-66
2021/07/23 03:04:47;;;;;;;8.32;7.10;;;;;;;18.37;70.66;96804.41;5109210;28;20243;-61
2021/07/23 03:07:12;;;;;;;10.15;7.28;;;;;;;18.34;70.93;96802.28;5100886;28;20176;-61
2021/07/23 03:09:38;;;;;;;11.23;7.20;;;;;;;18.45;70.45;96795.03;5093614;28;20237;-61
2021/07/23 03:12:03;;;;;;;10.25;7.43;;;;;;;18.45;70.73;96793.19;5103947;28;20184;-61
2021/07/23 03:14:30;;;;;;;12.30;7.57;;;;;;;18.44;70.73;96793.50;5097896;28;20184;-61
2021/07/23 03:16:56;;;;;;;11.03;7.80;;;;;;;18.37;71.05;96798.31;5109718;28;20712;-61
2021/07/23 03:19:21;;;;;;;10.90;7.82;;;;;;;18.17;72.08;96792.03;5099532;28;20168;-61
2021/07/23 03:21:47;;;;;;;9.30;7.03;;;;;;;18.30;71.66;96788.00;5103905;28;20241;-61
2021/07/23 03:24:13;;;;;;;13.40;7.50;;;;;;;18.27;71.77;96784.03;5106869;28;20195;-63
2021/07/23 03:26:39;;;;;;;9.50;7.23;;;;;;;18.29;71.60;96789.06;5107530;28;20265;-62
2021/07/23 03:29:05;;;;;;;9.70;7.60;;;;;;;18.28;71.77;96787.47;5097478;28;20179;-61
2021/07/23 03:31:30;;;;;;;11.00;7.80;;;;;;;18.24;71.98;96779.28;5107049;28;20193;-61
2021/07/23 03:33:56;;;;;;;10.43;7.30;;;;;;;18.14;72.51;96787.28;5104047;28;20191;-61
2021/07/23 03:36:22;;;;;;;10.02;7.57;;;;;;;18.15;72.48;96788.88;5099630;28;20196;-61
2021/07/23 03:38:47;;;;;;;12.23;8.00;;;;;;;18.19;72.22;96781.97;5110678;28;20539;-61
2021/07/23 03:41:13;;;;;;;11.40;8.20;;;;;;;18.20;72.61;96786.19;5107612;28;20188;-59
2021/07/23 03:43:38;;;;;;;10.83;7.70;;;;;;;18.17;72.68;96784.09;5092844;28;20304;-59
2021/07/23 03:46:04;;;;;;;12.70;8.57;;;;;;;18.10;73.50;96783.63;5103751;28;20223;-59
2021/07/23 03:48:29;;;;;;;11.20;8.32;;;;;;;18.17;73.32;96777.97;5105023;28;20179;-59
2021/07/23 03:50:54;;;;;;;12.57;8.27;;;;;;;18.21;73.17;96787.78;5102180;28;20198;-59
2021/07/23 03:53:20;;;;;;;12.10;8.85;;;;;;;18.21;73.08;96790.44;5098906;28;20195;-59
2021/07/23 03:55:45;;;;;;;13.48;8.88;;;;;;;18.28;73.17;96795.41;5102310;28;20188;-59
2021/07/23 03:58:11;;;;;;;13.53;8.87;;;;;;;18.27;73.20;96777.94;5103842;28;20211;-59
2021/07/23 04:00:36;;;;;;;12.30;8.07;;;;;;;18.22;73.51;96783.28;5096082;28;20192;-59
2021/07/23 04:03:02;;;;;;;12.82;8.93;;;;;;;18.25;73.36;96796.78;5109445;28;20956;-59
2021/07/23 04:05:27;;;;;;;13.43;9.23;;;;;;;18.24;73.46;96795.19;5092728;28;20195;-63
2021/07/23 04:07:56;;;;;;;15.25;9.00;;;;;;;18.32;73.57;96790.38;5101911;28;20176;-59
2021/07/23 04:10:22;;;;;;;11.63;9.23;;;;;;;18.33;73.30;96790.09;5099104;28;20189;-59
2021/07/23 04:12:47;;;;;;;13.50;9.30;;;;;;;18.38;73.18;96790.06;5093583;28;20191;-59
2021/07/23 04:15:12;;;;;;;13.85;9.43;;;;;;;18.42;73.04;96793.75;5107714;28;20181;-61
2021/07/23 04:17:38;;;;;;;11.23;8.27;;;;;;;18.53;72.71;96794.47;5100151;28;20191;-59
2021/07/23 04:20:04;;;;;;;11.00;8.50;;;;;;;18.52;72.64;96793.69;5093945;28;20193;-59
2021/07/23 04:22:30;;;;;;;11.30;8.40;;;;;;;18.56;72.57;96801.91;5106645;28;20188;-59
2021/07/23 04:24:55;;;;;;;15.18;8.73;;;;;;;18.71;72.04;96801.00;5095407;28;20261;-59
2021/07/23 04:27:21;;;;;;;11.60;8.18;;;;;;;18.80;71.58;96802.78;5107593;28;20181;-59
2021/07/23 04:29:47;;;;;;;10.57;8.50;;;;;;;18.87;71.23;96797.16;5093136;28;20211;-59
2021/07/23 04:32:13;;;;;;;13.50;8.95;;;;;;;18.90;71.08;96802.69;5109079;28;20267;-59
2021/07/23 04:34:38;;;;;;;11.13;8.40;;;;;;;19.04;70.49;96801.00;5096969;28;20191;-59
2021/07/23 04:37:04;;;;;;;12.57;8.18;;;;;;;19.08;70.32;96803.88;5103809;28;20215;-59
2021/07/23 04:39:30;;;;;;;12.15;8.63;;;;;;;19.28;69.55;96808.22;5107370;28;20188;-61
2021/07/23 04:41:55;;;;;;;13.23;8.77;;;;;;;19.43;68.83;96806.19;5093727;28;20609;-59
2021/07/23 04:44:20;;;;;;;10.10;8.23;;;;;;;19.51;68.33;96807.44;5099100;28;20192;-59
2021/07/23 04:46:46;;;;;;;15.55;8.68;;;;;;;19.67;67.74;96808.84;5099990;28;20239;-59
2021/07/23 04:49:11;;;;;;;12.10;8.13;;;;;;;19.79;67.50;96805.78;5099624;28;20633;-60
2021/07/23 04:51:37;;;;;;;10.50;7.97;;;;;;;19.91;67.16;96811.50;5107779;28;20183;-60
2021/07/23 04:54:02;;;;;;;11.27;8.30;;;;;;;19.89;66.34;96805.69;5092575;28;20309;-60
2021/07/23 04:56:28;;;;;;;12.82;8.77;;;;;;;20.00;66.32;96811.69;5097892;28;20613;-63
2021/07/23 04:58:53;;;;;;;11.00;7.97;;;;;;;20.11;66.26;96811.25;5101563;28;20185;-59
2021/07/23 05:01:18;;;;;;;11.73;7.95;;;;;;;20.36;65.47;96812.81;5095252;28;20188;-59
2021/07/23 05:03:44;;;;;;;11.38;7.85;;;;;;;20.60;64.85;96818.84;5104764;28;20295;-59
2021/07/23 05:06:10;;;;;;;11.93;8.57;;;;;;;20.96;63.58;96811.06;5101753;28;20182;-60
2021/07/23 05:08:37;;;;;;;10.30;7.30;;;;;;;21.31;62.25;96814.25;5109926;28;20176;-61
2021/07/23 05:11:07;;;;;;;11.02;7.40;;;;;;;21.64;60.89;96821.09;5110556;28;20226;-61
2021/07/23 05:13:34;;;;;;;10.20;7.03;;;;;;;21.93;60.22;96812.78;5100446;28;20230;-62
2021/07/23 05:16:00;;;;;;;11.25;7.32;;;;;;;22.20;58.88;96811.97;5092199;28;20196;-61
2021/07/23 05:18:27;;;;;;;11.80;7.55;;;;;;;22.42;58.26;96812.00;5091113;28;20187;-61
2021/07/23 05:20:53;;;;;;;10.27;7.07;;;;;;;22.48;58.16;96815.38;5107217;28;20188;-61
2021/07/23 05:23:19;;;;;;;10.88;7.57;;;;;;;22.37;58.79;96814.81;5090533;28;20549;-60
2021/07/23 05:25:45;;;;;;;9.52;7.13;;;;;;;22.69;58.32;96814.59;5090126;28;20184;-60
2021/07/23 05:28:10;;;;;;;9.32;7.32;;;;;;;22.72;57.63;96803.34;5088734;28;20215;-61
2021/07/23 05:30:35;;;;;;;9.45;7.43;;;;;;;22.82;58.03;96802.28;5085122;28;20195;-60
2021/07/23 05:33:01;;;;;;;10.10;7.90;;;;;;;22.74;58.54;96803.81;5089101;28;20180;-60
2021/07/23 05:35:26;;;;;;;12.52;8.48;;;;;;;22.67;59.34;96806.09;5092970;28;20253;-60
2021/07/23 05:37:51;;;;;;;12.15;8.55;;;;;;;22.64;59.08;96803.22;5090468;28;20206;-61
2021/07/23 05:40:17;;;;;;;12.30;8.15;;;;;;;22.12;60.38;96807.34;5101590;28;20261;-60
2021/07/23 05:42:43;;;;;;;13.35;7.90;;;;;;;22.28;60.00;96803.25;5100880;28;20582;-63
2021/07/23 05:45:09;;;;;;;11.02;8.00;;;;;;;22.49;59.65;96801.72;5102341;28;20266;-61
2021/07/23 05:47:34;;;;;;;10.10;7.57;;;;;;;22.76;59.72;96801.63;5105088;28;20280;-61
2021/07/23 05:49:59;;;;;;;10.23;7.70;;;;;;;22.32;60.99;96809.56;5099935;28;20188;-61
2021/07/23 05:52:25;;;;;;;11.38;8.27;;;;;;;22.50;60.87;96803.28;5112699;28;20180;-60
2021/07/23 05:54:50;;;;;;;10.32;7.70;;;;;;;22.27;61.42;96810.47;5103392;28;20203;-60
2021/07/23 05:57:17;;;;;;;10.90;7.75;;;;;;;22.51;60.83;96804.88;5093794;28;20192;-62
2021/07/23 05:59:42;;;;;;;13.15;8.10;;;;;;;22.44;61.06;96799.16;5099626;28;20226;-62
2021/07/23 06:02:08;;;;;;;10.68;8.32;;;;;;;22.73;60.23;96812.16;5098755;28;20258;-61
2021/07/23 06:04:34;;;;;;;9.77;7.72;;;;;;;22.88;59.76;96806.44;5096132;28;20212;-63
2021/07/23 06:07:03;;;;;;;10.02;8.02;;;;;;;22.91;60.19;96815.72;5107535;28;20184;-61
2021/07/23 06:09:29;;;;;;;11.65;7.82;;;;;;;22.85;60.01;96815.03;5113063;28;20584;-67
2021/07/23 06:11:54;;;;;;;11.70;8.85;;;;;;;22.06;61.83;96821.91;5095304;28;20180;-62
2021/07/23 06:14:19;;;;;;;17.00;9.57;;;;;;;22.04;62.47;96818.72;5101225;28;20187;-61
2021/07/23 06:16:44;;;;;;;10.52;8.30;;;;;;;22.42;61.73;96816.56;5101514;28;20198;-62
2021/07/23 06:19:10;;;;;;;15.00;8.52;;;;;;;22.59;60.60;96816.72;5110582;28;20210;-60
2021/07/23 06:21:35;;;;;;;11.30;7.93;;;;;;;22.80;60.63;96820.50;5105990;28;20818;-63
2021/07/23 06:24:01;;;;;;;11.27;8.48;;;;;;;22.58;61.39;96812.44;5096684;28;20299;-62
2021/07/23 06:26:26;;;;;;;11.18;7.75;;;;;;;22.62;60.97;96808.91;5109454;28;20214;-62
2021/07/23 06:28:52;;;;;;;10.02;8.20;;;;;;;22.74;60.38;96811.81;5101639;28;20267;-62
2021/07/23 06:31:17;;;;;;;9.95;8.00;;;;;;;23.04;59.65;96807.63;5102376;28;20268;-62
2021/07/23 06:33:42;;;;;;;10.18;8.23;;;;;;;22.66;61.46;96809.06;5109106;28;20211;-61
2021/07/23 06:36:08;;;;;;;11.45;8.13;;;;;;;22.49;61.69;96814.28;5107301;28;20216;-61
2021/07/23 06:38:33;;;;;;;12.57;8.35;;;;;;;22.75;61.14;96808.06;5104713;28;20210;-67
2021/07/23 06:40:59;;;;;;;11.57;8.65;;;;;;;23.01;60.44;96810.13;5097173;28;20268;-61
2021/07/23 06:43:26;;;;;;;11.73;8.65;;;;;;;22.96;60.86;96804.91;5108150;28;20203;-61
2021/07/23 06:45:52;;;;;;;10.95;8.65;;;;;;;22.78;61.26;96806.69;5100172;28;20404;-62
2021/07/23 06:48:17;;;;;;;10.68;8.32;;;;;;;22.95;60.57;96814.81;5103317;28;20208;-62
2021/07/23 06:50:43;;;;;;;10.75;8.05;;;;;;;23.14;60.57;96810.03;5094061;28;20220;-61
2021/07/23 06:53:08;;;;;;;11.55;8.23;;;;;;;23.53;58.91;96811.19;5110900;28;20187;-61
2021/07/23 06:55:34;;;;;;;16.20;9.07;;;;;;;23.60;58.83;96817.69;5094216;28;20180;-66
2021/07/23 06:58:00;;;;;;;9.60;8.13;;;;;;;23.15;59.90;96811.63;5102178;28;20180;-62
2021/07/23 07:00:25;;;;;;;13.38;8.98;;;;;;;23.20;59.92;96814.16;5111716;28;20543;-62
2021/07/23 07:02:51;;;;;;;15.73;8.63;;;;;;;22.90;60.27;96811.47;5105437;28;20268;-63
2021/07/23 07:05:17;;;;;;;13.18;8.45;;;;;;;23.10;60.56;96810.97;5100955;28;20204;-62
2021/07/23 07:07:43;;;;;;;11.27;7.35;;;;;;;23.58;59.26;96803.81;5106949;28;20606;-62
2021/07/23 07:10:09;;;;;;;13.13;8.73;;;;;;;23.28;59.90;96806.50;5098883;28;20234;-63
2021/07/23 07:12:34;;;;;;;10.10;8.13;;;;;;;23.41;59.81;96809.06;5110968;28;20632;-68
2021/07/23 07:14:59;;;;;;;10.43;7.82;;;;;;;23.52;58.95;96805.06;5111709;28;20222;-63
2021/07/23 07:17:28;;;;;;;12.40;8.38;;;;;;;23.80;58.39;96804.84;5109837;28;20514;-63
2021/07/23 07:19:54;;;;;;;11.88;8.40;;;;;;;24.09;57.47;96809.63;5106142;28;20230;-63
2021/07/23 07:22:19;;;;;;;12.63;9.45;;;;;;;24.12;56.80;96809.81;5097517;28;20238;-61
2021/07/23 07:24:45;;;;;;;12.60;9.00;;;;;;;23.62;58.79;96806.69;5107272;28;20202;-63
2021/07/23 07:27:13;;;;;;;10.07;7.60;;;;;;;23.80;58.63;96802.16;5094437;28;20649;-63
2021/07/23 07:29:38;;;;;;;10.45;8.75;;;;;;;23.84;58.21;96808.50;5111099;28;20529;-62
2021/07/23 07:32:06;;;;;;;10.68;8.55;;;;;;;23.88;58.26;96804.09;5113242;28;20189;-62
2021/07/23 07:34:34;;;;;;;11.20;8.07;;;;;;;24.26;57.30;96807.81;5102419;28;20188;-62
2021/07/23 07:37:00;;;;;;;11.35;8.63;;;;;;;24.36;56.68;96802.13;5108256;28;20182;-60
2021/07/23 07:39:26;;;;;;;12.18;8.38;;;;;;;24.55;56.11;96803.72;5108255;28;20180;-60
2021/07/23 07:41:51;;;;;;;10.68;7.93;;;;;;;24.65;55.97;96806.09;5095773;28;20659;-61
2021/07/23 07:44:16;;;;;;;10.40;8.52;;;;;;;24.67;55.75;96796.63;5105740;28;20199;-63
2021/07/23 07:46:42;;;;;;;10.70;7.95;;;;;;;24.48;56.37;96806.88;5096453;28;20224;-60
2021/07/23 07:49:07;;;;;;;11.23;8.88;;;;;;;24.01;56.93;96798.63;5101196;28;20189;-63
2021/07/23 07:51:32;;;;;;;12.07;8.20;;;;;;;23.63;57.17;96800.22;5105079;28;20180;-60
2021/07/23 07:53:58;;;;;;;10.07;8.32;;;;;;;23.73;58.15;96801.84;5097742;28;20257;-60
2021/07/23 07:56:23;;;;;;;12.40;8.68;;;;;;;23.35;58.72;96796.16;5101585;28;20260;-60
2021/07/23 07:58:49;;;;;;;9.82;8.27;;;;;;;23.54;57.82;96796.72;5106127;28;20633;-60
2021/07/23 08:01:14;;;;;;;11.65;8.13;;;;;;;23.79;57.11;96793.38;5095741;28;20187;-60
2021/07/23 08:03:40;;;;;;;9.80;7.90;;;;;;;24.02;56.13;96802.06;5095997;28;20291;-61
2021/07/23 08:09:08;;;;;;;9.73;7.75;;;;;;;23.91;55.18;96787.38;5098433;28;20213;-60
2021/07/23 08:11:33;;;;;;;10.63;8.27;;;;;;;24.04;55.87;96786.47;5108816;28;20264;-61
2021/07/23 08:13:59;;;;;;;10.75;8.35;;;;;;;23.82;56.20;96789.25;5098977;28;20218;-61
2021/07/23 08:16:24;;;;;;;10.15;7.60;;;;;;;23.82;54.40;96787.38;5101677;28;20237;-61
2021/07/23 08:18:50;;;;;;;10.30;7.97;;;;;;;23.92;54.85;96788.97;5105296;28;20211;-61
2021/07/23 08:21:15;;;;;;;12.60;8.60;;;;;;;23.96;55.03;96787.25;5103881;28;20240;-61
2021/07/23 08:23:41;;;;;;;13.60;8.38;;;;;;;23.83;53.96;96782.81;5094703;28;20645;-62
2021/07/23 08:26:06;;;;;;;10.30;8.48;;;;;;;23.69;54.12;96782.91;5081291;28;20200;-62
2021/07/23 08:28:33;;;;;;;12.13;9.00;;;;;;;24.20;53.42;96784.94;5100821;28;20218;-61
2021/07/23 08:30:58;;;;;;;13.77;9.43;;;;;;;23.89;53.45;96779.69;5100147;28;20176;-60
2021/07/23 08:33:24;;;;;;;17.52;10.05;;;;;;;23.85;53.88;96781.38;5107320;28;20209;-60
2021/07/23 08:35:50;;;;;;;15.35;9.40;;;;;;;23.99;53.75;96786.63;5092362;28;20234;-60
2021/07/23 08:38:16;;;;;;;13.32;9.30;;;;;;;23.88;54.83;96786.13;5091508;28;20215;-60
2021/07/23 08:40:42;;;;;;;12.15;8.73;;;;;;;24.17;53.36;96780.19;5098668;28;20180;-61
2021/07/23 08:43:07;;;;;;;14.90;9.32;;;;;;;24.14;52.51;96772.00;5104430;28;20504;-61
2021/07/23 08:45:33;;;;;;;14.20;9.68;;;;;;;24.66;52.21;96778.97;5094412;28;20784;-61
2021/07/23 08:48:00;;;;;;;14.20;9.20;;;;;;;24.53;53.17;96776.44;5102753;28;20249;-61
2021/07/23 08:50:25;;;;;;;10.40;8.23;;;;;;;23.92;54.19;96780.94;5099594;28;20176;-61
2021/07/23 08:52:51;;;;;;;12.02;8.73;;;;;;;24.32;53.73;96785.13;5092937;28;20637;-61
2021/07/23 08:55:18;;;;;;;13.45;8.98;;;;;;;23.97;54.64;96780.78;5106286;28;20184;-61
2021/07/23 08:57:45;;;;;;;12.85;9.48;;;;;;;23.94;54.50;96776.84;5094375;28;20188;-61
2021/07/23 09:00:13;;;;;;;13.70;8.88;;;;;;;24.04;54.26;96778.44;5108163;28;20181;-61
2021/07/23 09:02:54;;;;;;;11.75;9.13;;;;;;;24.30;54.66;96775.81;5107194;28;20573;-64
2021/07/23 09:05:21;;;;;;;13.23;8.55;;;;;;;24.59;54.55;96784.00;5101186;28;20263;-61
2021/07/23 09:07:47;;;;;;;11.15;7.93;;;;;;;24.74;54.30;96772.03;5096351;28;20180;-61
2021/07/23 09:10:20;;;;;;;11.68;8.60;;;;;;;24.56;54.92;96773.94;5108861;28;20181;-61
2021/07/23 09:12:50;;;;;;;10.68;7.72;;;;;;;24.35;53.60;96773.75;5099046;28;20183;-61
2021/07/23 09:15:17;;;;;;;11.20;8.68;;;;;;;24.41;55.11;96777.88;5109403;28;20215;-61
2021/07/23 09:17:43;;;;;;;10.93;8.65;;;;;;;24.29;54.85;96776.94;5100702;28;20242;-61
2021/07/23 09:20:09;;;;;;;10.48;8.35;;;;;;;24.37;53.05;96770.78;5108539;28;20187;-62
2021/07/23 09:22:44;;;;;;;10.15;7.63;;;;;;;24.39;53.40;96769.38;5094299;28;20261;-61
2021/07/23 09:25:10;;;;;;;11.60;7.80;;;;;;;24.53;52.45;96763.03;5099387;28;20203;-61
2021/07/23 09:27:36;;;;;;;12.82;8.18;;;;;;;24.51;53.31;96757.22;5106974;28;20297;-62
2021/07/23 09:30:02;;;;;;;13.70;8.48;;;;;;;24.63;52.63;96760.81;5099420;28;20181;-61
2021/07/23 09:32:28;;;;;;;13.57;9.25;;;;;;;24.79;52.50;96759.25;5092822;28;20255;-61
2021/07/23 09:35:11;;;;;;;9.75;8.35;;;;;;;25.06;52.08;96760.78;5106834;28;20184;-61
2021/07/23 09:37:52;;;;;;;9.77;7.78;;;;;;;25.59;50.59;96756.81;5081140;28;20186;-61
2021/07/23 09:40:18;;;;;;;12.10;8.32;;;;;;;25.72;50.21;96746.97;5113982;28;20212;-62
2021/07/23 09:42:43;;;;;;;11.43;8.65;;;;;;;25.88;49.83;96754.13;5111419;28;20211;-65
2021/07/23 09:45:09;;;;;;;10.82;7.80;;;;;;;25.96;49.28;96753.31;5109570;28;20207;-62
2021/07/23 09:47:35;;;;;;;11.32;8.18;;;;;;;25.89;49.52;96753.03;5098234;28;20580;-61
2021/07/23 09:50:02;;;;;;;11.18;8.30;;;;;;;25.34;50.99;96746.97;5110923;28;20192;-61
2021/07/23 09:52:28;;;;;;;14.27;8.57;;;;;;;24.92;51.81;96754.03;5099672;28;20693;-62
2021/07/23 09:54:54;;;;;;;10.00;7.72;;;;;;;25.23;50.96;96744.66;5119404;27;20200;-63
2021/07/23 09:57:23;;;;;;;9.68;7.53;;;;;;;25.14;51.36;96741.19;5110284;28;20191;-60
2021/07/23 09:59:58;;;;;;;11.63;8.00;;;;;;;24.44;51.90;96747.78;5097501;28;20183;-61
2021/07/23 10:02:25;;;;;;;11.13;8.00;;;;;;;24.83;51.10;96744.09;5102290;28;20179;-61
2021/07/23 10:05:10;;;;;;;11.38;7.75;;;;;;;25.21;49.95;96735.31;5104238;27;20255;-61
2021/07/23 10:07:46;;;;;;;9.35;7.35;;;;;;;25.05;50.31;96729.72;5111608;28;20179;-61
2021/07/23 10:10:13;;;;;;;9.05;6.57;;;;;;;24.97;50.06;96725.16;5110745;28;20169;-61
2021/07/23 10:12:41;;;;;;;9.10;7.38;;;;;;;24.99;50.59;96724.84;5092778;28;20194;-63
2021/07/23 10:15:07;;;;;;;11.90;7.00;;;;;;;25.44;49.33;96722.44;5093892;28;20678;-61
2021/07/23 10:17:34;;;;;;;9.63;6.57;;;;;;;25.26;47.79;96719.03;5099145;28;20220;-61
2021/07/23 10:20:00;;;;;;;8.20;6.30;;;;;;;25.61;47.15;96708.97;5110959;28;20208;-62
2021/07/23 10:22:28;;;;;;;7.45;6.20;;;;;;;25.48;47.36;96709.94;5097383;28;20256;-62
2021/07/23 10:24:55;;;;;;;7.93;5.65;;;;;;;25.53;47.21;96702.50;5105252;28;20274;-61
2021/07/23 10:27:24;;;;;;;9.23;5.53;;;;;;;25.79;47.01;96709.66;5106023;28;20654;-61
2021/07/23 10:29:51;;;;;;;7.65;6.40;;;;;;;25.99;45.92;96703.50;5103993;28;20189;-62
2021/07/23 10:32:35;;;;;;;8.65;6.25;;;;;;;26.04;45.63;96708.66;5097797;28;20188;-62
2021/07/23 10:35:16;;;;;;;9.90;5.80;;;;;;;26.16;45.43;96697.19;5098998;28;20193;-61
2021/07/23 10:37:54;;;;;;;8.60;6.43;;;;;;;26.32;45.02;96690.91;5113280;28;20185;-61
2021/07/23 10:40:31;;;;;;;6.35;5.45;;;;;;;25.88;45.25;96694.25;5108124;28;20168;-62
2021/07/23 10:42:57;;;;;;;7.05;5.85;;;;;;;25.90;45.27;96681.28;5099555;28;20196;-61
2021/07/23 10:45:40;;;;;;;10.50;6.15;;;;;;;25.64;46.49;96684.13;5096345;28;20611;-61
2021/07/23 10:48:05;;;;;;;6.70;5.72;;;;;;;24.94;46.64;96685.56;5095074;28;20758;-61
2021/07/23 10:50:40;;;;;;;7.78;6.20;;;;;;;24.86;47.32;96686.34;5094825;28;20184;-61
2021/07/23 10:53:26;;;;;;;7.97;6.00;;;;;;;24.91;47.04;96675.47;5094834;28;20326;-62
2021/07/23 10:55:52;;;;;;;7.40;6.05;;;;;;;25.40;47.03;96671.31;5098684;28;20193;-61
2021/07/23 10:58:20;;;;;;;6.75;6.05;;;;;;;25.90;46.07;96671.34;5094871;28;20188;-61
2021/07/23 11:00:50;;;;;;;10.40;5.63;;;;;;;25.74;45.37;96669.56;5093625;28;20648;-65
2021/07/23 11:03:35;;;;;;;8.75;5.72;;;;;;;25.56;45.48;96677.72;5109881;28;20257;-61
2021/07/23 11:06:00;;;;;;;6.78;5.95;;;;;;;25.68;46.13;96663.59;5105247;28;20194;-62
2021/07/23 11:08:26;;;;;;;10.38;6.75;;;;;;;25.97;45.40;96660.06;5110217;28;20263;-61
2021/07/23 11:10:54;;;;;;;6.35;5.38;;;;;;;26.40;44.38;96659.72;5093691;28;20257;-62
2021/07/23 11:13:22;;;;;;;10.45;6.40;;;;;;;26.46;44.25;96650.31;5092652;28;20546;-61
2021/07/23 11:15:48;;;;;;;9.95;6.38;;;;;;;26.69;43.64;96658.78;5101141;28;20195;-65
2021/07/23 11:18:16;;;;;;;8.20;6.07;;;;;;;26.74;43.75;96648.59;5107423;28;20188;-62
2021/07/23 11:20:41;;;;;;;7.45;6.32;;;;;;;26.74;44.11;96648.59;5102045;28;20183;-61
2021/07/23 11:23:07;;;;;;;10.70;6.90;;;;;;;27.02;43.27;96648.78;5106430;28;20184;-62
2021/07/23 11:25:33;;;;;;;6.22;5.60;;;;;;;27.05;43.01;96645.41;5108121;27;20664;-61
2021/07/23 11:28:01;;;;;;;15.05;6.20;;;;;;;27.11;43.21;96643.28;5100064;28;20191;-61